createdAt,value
2023-04-30T00:01:21.466Z,1.95
2023-04-30T00:03:49.409Z,3.00
2023-04-30T00:06:17.500Z,1.60
2023-04-30T00:08:45.392Z,2.13
2023-04-30T00:11:13.432Z,2.80
2023-04-30T00:13:43.415Z,1.90
2023-04-30T00:16:11.879Z,2.78
2023-04-30T00:18:40.170Z,2.08
2023-04-30T00:21:10.765Z,1.92
2023-04-30T00:23:38.726Z,2.90
2023-04-30T00:26:06.666Z,1.45
2023-04-30T00:28:34.611Z,2.88
2023-04-30T00:31:06.786Z,1.90
2023-04-30T00:33:34.753Z,2.10
2023-04-30T00:36:05.396Z,2.10
2023-04-30T00:38:35.281Z,3.08
2023-04-30T00:41:03.660Z,1.90
2023-04-30T00:43:31.625Z,2.63
2023-04-30T00:45:59.658Z,1.70
2023-04-30T00:48:29.021Z,1.85
2023-04-30T00:50:57.417Z,2.03
2023-04-30T00:53:25.567Z,2.88
2023-04-30T00:55:54.045Z,2.67
2023-04-30T00:58:22.450Z,2.25
2023-04-30T01:00:50.726Z,2.78
2023-04-30T01:03:18.858Z,2.13
2023-04-30T01:05:48.202Z,2.05
2023-04-30T01:08:16.132Z,1.65
2023-04-30T01:11:08.565Z,1.10
2023-04-30T01:13:45.920Z,1.63
2023-04-30T01:16:20.204Z,1.45
2023-04-30T01:18:53.504Z,2.60
2023-04-30T01:21:23.061Z,2.00
2023-04-30T01:24:16.599Z,2.63
2023-04-30T01:27:00.336Z,1.50
2023-04-30T01:29:31.318Z,1.58
2023-04-30T01:31:59.388Z,1.70
2023-04-30T01:34:27.316Z,2.85
2023-04-30T01:37:12.751Z,1.65
2023-04-30T01:40:04.475Z,3.53
2023-04-30T01:42:42.632Z,1.85
2023-04-30T01:45:40.999Z,1.77
2023-04-30T01:48:23.669Z,2.42
2023-04-30T01:50:55.709Z,1.88
2023-04-30T01:53:31.080Z,2.63
2023-04-30T01:56:02.814Z,1.75
2023-04-30T01:58:31.694Z,1.90
2023-04-30T02:01:00.997Z,1.80
2023-04-30T02:03:29.005Z,2.53
2023-04-30T02:05:59.081Z,1.45
2023-04-30T02:08:27.162Z,1.73
2023-04-30T02:10:55.235Z,1.95
2023-04-30T02:13:23.122Z,2.40
2023-04-30T02:15:51.087Z,1.80
2023-04-30T02:18:20.392Z,1.95
2023-04-30T02:20:48.354Z,2.03
2023-04-30T02:23:17.174Z,2.15
2023-04-30T02:25:45.319Z,1.33
2023-04-30T02:28:13.317Z,2.10
2023-04-30T02:30:41.181Z,1.70
2023-04-30T02:33:12.250Z,3.00
2023-04-30T02:35:42.754Z,1.98
2023-04-30T02:38:10.677Z,3.58
2023-04-30T02:40:38.582Z,2.78
2023-04-30T02:43:06.552Z,2.05
2023-04-30T02:45:34.517Z,1.23
2023-04-30T02:48:02.529Z,1.60
2023-04-30T02:50:33.288Z,2.03
2023-04-30T02:53:04.878Z,3.00
2023-04-30T02:55:43.814Z,1.80
2023-04-30T02:58:13.290Z,2.28
2023-04-30T03:00:41.466Z,3.58
2023-04-30T03:03:09.584Z,2.55
2023-04-30T03:05:40.339Z,1.60
2023-04-30T03:08:09.605Z,1.40
2023-04-30T03:10:37.819Z,2.08
2023-04-30T03:13:05.893Z,1.70
2023-04-30T03:15:37.477Z,1.77
2023-04-30T03:18:07.010Z,2.00
2023-04-30T03:20:35.053Z,1.30
2023-04-30T03:23:03.276Z,2.13
2023-04-30T03:25:41.566Z,1.95
2023-04-30T03:28:09.455Z,2.33
2023-04-30T03:30:37.373Z,1.45
2023-04-30T03:33:06.682Z,2.58
2023-04-30T03:35:38.550Z,2.50
2023-04-30T03:38:08.959Z,1.80
2023-04-30T03:40:38.187Z,2.55
2023-04-30T03:43:09.401Z,1.63
2023-04-30T03:45:40.028Z,2.05
2023-04-30T03:48:09.974Z,1.80
2023-04-30T03:50:37.939Z,1.77
2023-04-30T03:53:06.240Z,2.45
2023-04-30T03:55:35.538Z,1.60
2023-04-30T03:58:05.113Z,1.90
2023-04-30T04:00:33.046Z,1.85
2023-04-30T04:03:01.318Z,1.58
2023-04-30T04:05:29.736Z,1.63
2023-04-30T04:07:57.696Z,1.38
2023-04-30T04:10:25.818Z,2.38
2023-04-30T04:12:53.820Z,2.15
2023-04-30T04:15:23.320Z,1.35
2023-04-30T04:17:51.481Z,2.97
2023-04-30T04:20:19.930Z,1.80
2023-04-30T04:22:47.807Z,3.10
2023-04-30T04:25:15.996Z,2.35
2023-04-30T04:27:45.022Z,1.70
2023-04-30T04:30:13.776Z,1.85
2023-04-30T04:32:49.548Z,1.75
2023-04-30T04:35:19.484Z,2.33
2023-04-30T04:37:47.498Z,1.80
2023-04-30T04:40:15.745Z,1.42
2023-04-30T04:42:46.666Z,1.67
2023-04-30T04:45:16.774Z,2.70
2023-04-30T04:47:46.866Z,1.85
2023-04-30T04:50:15.618Z,1.90
2023-04-30T04:52:43.645Z,1.88
2023-04-30T04:55:12.185Z,3.75
2023-04-30T04:57:40.660Z,2.55
2023-04-30T05:00:10.792Z,4.05
2023-04-30T05:02:38.805Z,3.38
2023-04-30T05:05:09.419Z,1.48
2023-04-30T05:07:37.691Z,1.73
2023-04-30T05:10:06.354Z,1.58
2023-04-30T05:12:34.676Z,1.35
2023-04-30T05:15:02.733Z,1.95
2023-04-30T05:17:30.594Z,1.55
2023-04-30T05:19:58.995Z,2.03
2023-04-30T05:22:28.361Z,1.77
2023-04-30T05:24:56.365Z,1.40
2023-04-30T05:27:24.245Z,1.60
2023-04-30T05:29:52.339Z,2.50
2023-04-30T05:32:20.518Z,2.28
2023-04-30T05:34:48.453Z,2.20
2023-04-30T05:37:17.698Z,1.77
2023-04-30T05:39:47.042Z,4.18
2023-04-30T05:42:17.446Z,1.50
2023-04-30T05:44:45.445Z,2.33
2023-04-30T05:47:15.642Z,1.70
2023-04-30T05:49:43.579Z,1.30
2023-04-30T05:52:16.582Z,1.85
2023-04-30T05:54:47.989Z,1.38
2023-04-30T05:57:17.256Z,1.67
2023-04-30T05:59:45.164Z,1.20
2023-04-30T06:02:13.573Z,1.80
2023-04-30T06:04:44.153Z,1.20
2023-04-30T06:07:14.320Z,1.17
2023-04-30T06:09:42.172Z,2.20
2023-04-30T06:12:11.606Z,1.25
2023-04-30T06:14:45.335Z,1.45
2023-04-30T06:17:14.814Z,1.35
2023-04-30T06:19:44.924Z,1.17
2023-04-30T06:22:16.307Z,1.83
2023-04-30T06:24:44.201Z,2.10
2023-04-30T06:27:13.551Z,1.30
2023-04-30T06:29:44.586Z,1.42
2023-04-30T06:32:12.543Z,1.70
2023-04-30T06:34:40.453Z,1.80
2023-04-30T06:37:10.085Z,1.60
2023-04-30T06:39:38.030Z,2.17
2023-04-30T06:42:05.916Z,1.45
2023-04-30T06:44:35.854Z,1.45
2023-04-30T06:47:04.122Z,1.55
2023-04-30T06:49:31.975Z,1.58
2023-04-30T06:51:59.893Z,1.25
2023-04-30T06:54:27.863Z,1.58
2023-04-30T06:56:55.826Z,2.08
2023-04-30T06:59:23.684Z,1.60
2023-04-30T07:01:53.340Z,1.23
2023-04-30T07:04:21.342Z,1.10
2023-04-30T07:06:49.283Z,1.88
2023-04-30T07:09:17.274Z,1.63
2023-04-30T07:11:45.308Z,1.52
2023-04-30T07:14:13.253Z,1.67
2023-04-30T07:16:41.184Z,1.23
2023-04-30T07:19:10.419Z,1.40
2023-04-30T07:21:38.240Z,1.38
2023-04-30T07:24:09.250Z,0.98
2023-04-30T07:26:37.326Z,1.50
2023-04-30T07:29:05.725Z,2.05
2023-04-30T07:31:34.212Z,1.52
2023-04-30T07:34:02.249Z,1.30
2023-04-30T07:36:31.619Z,1.30
2023-04-30T07:38:59.578Z,1.50
2023-04-30T07:41:27.758Z,1.60
2023-04-30T07:43:55.742Z,1.52
2023-04-30T07:46:25.289Z,1.30
2023-04-30T07:48:53.281Z,2.03
2023-04-30T07:51:21.187Z,1.80
2023-04-30T07:53:50.523Z,1.48
2023-04-30T07:56:21.474Z,1.60
2023-04-30T07:58:49.364Z,2.33
2023-04-30T08:01:17.954Z,1.70
2023-04-30T08:03:46.598Z,1.10
2023-04-30T08:06:14.708Z,2.03
2023-04-30T08:08:42.659Z,2.08
2023-04-30T08:11:12.231Z,1.77
2023-04-30T08:13:40.180Z,1.85
2023-04-30T08:16:08.326Z,1.30
2023-04-30T08:18:40.476Z,1.25
2023-04-30T08:21:08.487Z,1.70
2023-04-30T08:23:36.412Z,1.20
2023-04-30T08:26:04.316Z,1.40
2023-04-30T08:28:33.553Z,1.67
2023-04-30T08:31:01.681Z,2.20
2023-04-30T08:33:29.561Z,1.20
2023-04-30T08:35:57.409Z,1.77
2023-04-30T08:38:27.589Z,2.03
2023-04-30T08:41:06.497Z,3.00
2023-04-30T08:43:37.652Z,1.83
2023-04-30T08:46:06.644Z,2.53
2023-04-30T08:48:35.090Z,1.90
2023-04-30T08:51:03.388Z,1.33
2023-04-30T08:53:32.573Z,1.60
2023-04-30T08:56:00.458Z,1.40
2023-04-30T08:58:28.336Z,1.23
2023-04-30T09:00:59.478Z,2.10
2023-04-30T09:03:28.354Z,2.05
2023-04-30T09:05:57.093Z,1.65
2023-04-30T09:08:43.298Z,1.67
2023-04-30T09:11:23.572Z,1.30
2023-04-30T09:13:53.318Z,2.15
2023-04-30T09:16:23.230Z,1.83
2023-04-30T09:18:51.744Z,1.50
2023-04-30T09:21:32.459Z,1.83
2023-04-30T09:24:01.990Z,1.73
2023-04-30T09:26:33.596Z,1.45
2023-04-30T09:29:07.505Z,1.98
2023-04-30T09:31:38.745Z,1.27
2023-04-30T09:34:07.147Z,1.98
2023-04-30T09:36:35.754Z,1.35
2023-04-30T09:39:14.248Z,1.80
2023-04-30T09:41:43.482Z,1.85
2023-04-30T09:44:27.997Z,1.85
2023-04-30T09:46:58.489Z,1.65
2023-04-30T09:49:27.183Z,1.90
2023-04-30T09:51:56.642Z,1.98
2023-04-30T09:54:27.715Z,1.73
2023-04-30T09:56:57.981Z,1.92
2023-04-30T09:59:31.459Z,1.73
2023-04-30T10:02:02.765Z,1.33
2023-04-30T10:04:36.474Z,2.15
2023-04-30T10:07:09.222Z,1.95
2023-04-30T10:09:44.682Z,1.10
2023-04-30T10:12:16.157Z,1.05
2023-04-30T10:14:51.901Z,1.30
2023-04-30T10:17:24.435Z,1.50
2023-04-30T10:19:56.246Z,2.25
2023-04-30T10:22:25.049Z,1.30
2023-04-30T10:24:53.810Z,1.80
2023-04-30T10:27:21.846Z,1.30
2023-04-30T10:29:51.485Z,1.33
2023-04-30T10:32:21.479Z,1.02
2023-04-30T10:34:57.598Z,1.45
2023-04-30T10:37:32.144Z,2.42
2023-04-30T10:40:00.659Z,1.55
2023-04-30T10:42:28.590Z,1.23
2023-04-30T10:44:59.287Z,0.98
2023-04-30T10:47:32.723Z,1.58
2023-04-30T10:50:04.343Z,1.70
2023-04-30T10:52:41.469Z,2.20
2023-04-30T10:55:11.162Z,1.65
2023-04-30T10:57:43.752Z,1.25
2023-04-30T11:00:25.518Z,1.50
2023-04-30T11:02:58.470Z,2.88
2023-04-30T11:05:38.475Z,3.33
2023-04-30T11:08:07.058Z,2.10
2023-04-30T11:10:37.117Z,1.50
2023-04-30T11:13:06.889Z,2.08
2023-04-30T11:15:37.654Z,1.15
2023-04-30T11:18:09.478Z,2.00
2023-04-30T11:20:42.028Z,1.80
2023-04-30T11:23:11.350Z,1.48
2023-04-30T11:25:44.287Z,1.00
2023-04-30T11:28:17.775Z,1.42
2023-04-30T11:30:56.209Z,1.88
2023-04-30T11:33:27.799Z,3.72
2023-04-30T11:35:56.566Z,2.30
2023-04-30T11:38:30.333Z,2.20
2023-04-30T11:40:59.088Z,1.90
2023-04-30T11:43:28.205Z,1.50
2023-04-30T11:46:08.453Z,1.88
2023-04-30T11:48:38.915Z,2.13
2023-04-30T11:51:15.481Z,1.80
2023-04-30T11:53:43.737Z,1.23
2023-04-30T11:56:11.645Z,3.30
2023-04-30T11:58:40.293Z,1.60
2023-04-30T12:01:09.492Z,1.83
2023-04-30T12:03:44.346Z,3.10
2023-04-30T12:06:13.551Z,2.05
2023-04-30T12:08:42.949Z,1.75
2023-04-30T12:11:21.645Z,1.70
2023-04-30T12:13:53.894Z,1.25
2023-04-30T12:16:22.089Z,2.13
2023-04-30T12:18:52.871Z,1.25
2023-04-30T12:21:22.809Z,2.08
2023-04-30T12:23:53.588Z,1.73
2023-04-30T12:26:21.803Z,1.90
2023-04-30T12:28:50.462Z,2.30
2023-04-30T12:31:19.502Z,2.53
2023-04-30T12:33:56.975Z,1.38
2023-04-30T12:36:32.620Z,1.42
2023-04-30T12:39:10.736Z,1.90
2023-04-30T12:41:42.332Z,1.52
2023-04-30T12:44:20.935Z,1.38
2023-04-30T12:46:49.497Z,1.38
2023-04-30T12:49:26.462Z,1.75
2023-04-30T12:52:00.125Z,1.23
2023-04-30T12:54:34.576Z,1.15
2023-04-30T12:57:05.131Z,1.50
2023-04-30T12:59:34.258Z,1.17
2023-04-30T13:02:24.629Z,1.85
2023-04-30T13:04:54.739Z,1.90
2023-04-30T13:07:25.909Z,1.65
2023-04-30T13:09:54.024Z,1.80
2023-04-30T13:12:24.949Z,1.80
2023-04-30T13:14:55.265Z,2.00
2023-04-30T13:17:23.287Z,2.60
2023-04-30T13:19:51.237Z,2.35
2023-04-30T13:22:20.809Z,1.65
2023-04-30T13:24:48.766Z,1.45
2023-04-30T13:27:16.935Z,1.63
2023-04-30T13:29:44.804Z,1.85
2023-04-30T13:32:12.669Z,2.42
2023-04-30T13:34:40.565Z,1.80
2023-04-30T13:37:08.801Z,1.00
2023-04-30T13:39:38.081Z,1.48
2023-04-30T13:42:07.077Z,1.42
2023-04-30T13:44:36.629Z,2.50
2023-04-30T13:47:04.573Z,1.83
2023-04-30T13:49:32.569Z,1.63
2023-04-30T13:52:00.450Z,1.88
2023-04-30T13:54:28.434Z,1.73
2023-04-30T13:56:59.557Z,1.42
2023-04-30T13:59:28.007Z,2.40
2023-04-30T14:01:56.041Z,2.13
2023-04-30T14:04:24.069Z,1.35
2023-04-30T14:06:56.404Z,1.70
2023-04-30T14:09:24.463Z,1.38
2023-04-30T14:11:52.352Z,1.20
2023-04-30T14:14:22.994Z,2.25
2023-04-30T14:16:51.239Z,2.22
2023-04-30T14:19:20.394Z,1.50
2023-04-30T14:21:48.341Z,1.60
2023-04-30T14:24:16.710Z,1.35
2023-04-30T14:26:45.454Z,1.45
2023-04-30T14:29:13.481Z,1.38
2023-04-30T14:31:42.766Z,1.05
2023-04-30T14:34:10.656Z,1.95
2023-04-30T14:36:39.232Z,1.67
2023-04-30T14:39:07.330Z,1.58
2023-04-30T14:41:36.673Z,2.00
2023-04-30T14:44:05.636Z,1.45
2023-04-30T14:46:34.777Z,1.30
2023-04-30T14:49:14.366Z,1.70
2023-04-30T14:51:42.334Z,2.47
2023-04-30T14:54:10.820Z,1.20
2023-04-30T14:56:39.059Z,1.35
2023-04-30T14:59:06.941Z,1.25
2023-04-30T15:01:34.950Z,1.45
2023-04-30T15:04:04.353Z,1.20
2023-04-30T15:06:32.638Z,1.45
2023-04-30T15:09:01.152Z,2.33
2023-04-30T15:11:29.184Z,1.00
2023-04-30T15:13:57.183Z,1.50
2023-04-30T15:16:25.568Z,1.30
2023-04-30T15:18:54.169Z,1.50
2023-04-30T15:21:23.502Z,1.52
2023-04-30T15:23:51.610Z,1.20
2023-04-30T15:26:19.492Z,1.10
2023-04-30T15:28:47.524Z,1.52
2023-04-30T15:31:15.479Z,1.05
2023-04-30T15:33:43.338Z,0.93
2023-04-30T15:36:11.664Z,1.52
2023-04-30T15:38:40.970Z,2.10
2023-04-30T15:41:09.037Z,2.60
2023-04-30T15:43:36.942Z,1.75
2023-04-30T15:46:07.871Z,1.38
2023-04-30T15:48:35.870Z,1.45
2023-04-30T15:51:05.793Z,1.55
2023-04-30T15:53:33.710Z,1.23
2023-04-30T15:56:04.446Z,1.85
2023-04-30T15:58:32.363Z,1.75
2023-04-30T16:01:01.203Z,1.58
2023-04-30T16:03:29.285Z,1.13
2023-04-30T16:05:57.399Z,1.83
2023-04-30T16:08:25.424Z,1.95
2023-04-30T16:10:53.604Z,1.20
2023-04-30T16:13:22.850Z,1.00
2023-04-30T16:15:50.963Z,1.60
2023-04-30T16:18:19.264Z,1.60
2023-04-30T16:20:48.482Z,3.45
2023-04-30T16:23:17.071Z,1.65
2023-04-30T16:25:45.029Z,1.20
2023-04-30T16:28:12.967Z,2.20
2023-04-30T16:30:42.823Z,1.85
2023-04-30T16:33:11.162Z,1.60
2023-04-30T16:35:39.011Z,1.13
2023-04-30T16:38:06.855Z,1.48
2023-04-30T16:40:41.815Z,2.00
2023-04-30T16:43:09.906Z,1.45
2023-04-30T16:45:37.874Z,1.17
2023-04-30T16:48:07.460Z,1.50
2023-04-30T16:50:35.369Z,1.35
2023-04-30T16:53:03.286Z,2.40
2023-04-30T16:55:31.654Z,1.83
2023-04-30T16:57:59.858Z,1.55
2023-04-30T17:00:27.849Z,1.30
2023-04-30T17:02:55.829Z,1.17
2023-04-30T17:05:26.233Z,1.65
2023-04-30T17:07:54.094Z,1.13
2023-04-30T17:10:23.618Z,1.23
2023-04-30T17:12:52.216Z,1.90
2023-04-30T17:15:21.288Z,1.25
2023-04-30T17:17:51.958Z,1.70
2023-04-30T17:20:20.044Z,1.10
2023-04-30T17:22:51.655Z,1.30
2023-04-30T17:25:19.681Z,2.38
2023-04-30T17:27:47.609Z,3.70
2023-04-30T17:33:01.236Z,6.80
2023-04-30T17:35:30.495Z,7.38
2023-04-30T17:38:00.493Z,5.72
2023-04-30T17:40:28.427Z,7.47
2023-04-30T17:42:56.329Z,7.88
2023-04-30T17:45:24.443Z,7.93
2023-04-30T17:47:52.417Z,6.35
2023-04-30T17:50:20.416Z,4.70
2023-04-30T17:52:48.578Z,6.25
2023-04-30T17:55:20.807Z,4.57
2023-04-30T17:57:48.822Z,3.95
2023-04-30T18:00:19.568Z,4.32
2023-04-30T18:02:47.688Z,3.75
2023-04-30T18:05:16.573Z,5.88
2023-04-30T18:07:44.497Z,6.22
2023-04-30T18:10:15.485Z,3.25
2023-04-30T18:12:47.504Z,4.18
2023-04-30T18:15:17.290Z,2.55
2023-04-30T18:17:45.616Z,3.10
2023-04-30T18:20:13.852Z,2.90
2023-04-30T18:22:52.029Z,3.50
2023-04-30T18:25:20.094Z,2.70
2023-04-30T18:27:52.386Z,2.38
2023-04-30T18:30:28.266Z,4.93
2023-04-30T18:32:56.410Z,3.38
2023-04-30T18:35:32.702Z,2.90
2023-04-30T18:38:01.679Z,2.78
2023-04-30T18:40:29.823Z,3.65
2023-04-30T18:42:59.150Z,2.92
2023-04-30T18:45:35.239Z,2.67
2023-04-30T18:48:03.263Z,2.78
2023-04-30T18:50:31.181Z,3.45
2023-04-30T18:52:59.073Z,4.47
2023-04-30T18:55:27.134Z,4.65
2023-04-30T18:57:56.387Z,7.50
2023-04-30T19:00:25.933Z,6.25
2023-04-30T19:02:56.136Z,6.15
2023-04-30T19:05:24.079Z,5.18
2023-04-30T19:07:51.998Z,4.05
2023-04-30T19:10:19.982Z,6.05
2023-04-30T19:12:47.857Z,3.40
2023-04-30T19:15:17.750Z,4.47
2023-04-30T19:17:46.985Z,4.35
2023-04-30T19:20:15.042Z,5.72
2023-04-30T19:22:43.556Z,3.80
2023-04-30T19:25:15.213Z,5.28
2023-04-30T19:27:44.066Z,4.70
2023-04-30T19:30:14.350Z,4.20
2023-04-30T19:32:42.360Z,5.18
2023-04-30T19:35:14.025Z,4.68
2023-04-30T19:37:41.894Z,4.78
2023-04-30T19:40:15.836Z,4.43
2023-04-30T19:42:46.359Z,5.78
2023-04-30T19:45:14.290Z,4.57
2023-04-30T19:47:44.556Z,5.60
2023-04-30T19:50:14.075Z,5.25
2023-04-30T19:52:41.983Z,5.20
2023-04-30T19:55:10.551Z,5.07
2023-04-30T19:57:41.379Z,5.60
2023-04-30T20:00:12.804Z,5.82
2023-04-30T20:02:40.763Z,3.72
2023-04-30T20:05:11.806Z,4.00
2023-04-30T20:07:42.161Z,4.43
2023-04-30T20:10:13.985Z,3.95
2023-04-30T20:12:45.360Z,6.72
2023-04-30T20:15:13.256Z,5.53
2023-04-30T20:17:41.686Z,6.10
2023-04-30T20:20:10.313Z,5.68
2023-04-30T20:22:38.818Z,5.88
2023-04-30T20:25:08.914Z,5.95
2023-04-30T20:27:37.026Z,5.25
2023-04-30T20:30:05.413Z,5.70
2023-04-30T20:32:34.595Z,5.03
2023-04-30T20:35:03.262Z,5.68
2023-04-30T20:37:33.551Z,5.32
2023-04-30T20:40:02.284Z,5.45
2023-04-30T20:42:31.606Z,6.75
2023-04-30T20:44:59.512Z,5.45
2023-04-30T20:47:31.106Z,4.97
2023-04-30T20:49:59.178Z,3.75
2023-04-30T20:52:27.036Z,5.15
2023-04-30T20:54:55.014Z,5.82
2023-04-30T20:57:28.379Z,5.60
2023-04-30T20:59:57.974Z,5.25
2023-04-30T21:02:26.073Z,5.80
2023-04-30T21:04:54.069Z,5.30
2023-04-30T21:07:21.932Z,3.83
2023-04-30T21:09:53.228Z,2.85
2023-04-30T21:12:21.213Z,3.55
2023-04-30T21:14:52.110Z,4.72
2023-04-30T21:17:22.986Z,5.03
2023-04-30T21:19:50.841Z,6.43
2023-04-30T21:22:18.767Z,3.53
2023-04-30T21:24:46.673Z,4.43
2023-04-30T21:27:14.683Z,5.28
2023-04-30T21:29:44.556Z,5.85
2023-04-30T21:32:12.404Z,5.80
2023-04-30T21:34:41.721Z,3.55
2023-04-30T21:37:09.642Z,4.40
2023-04-30T21:39:40.301Z,3.78
2023-04-30T21:42:12.169Z,3.03
2023-04-30T21:44:40.168Z,3.97
2023-04-30T21:47:09.205Z,4.43
2023-04-30T21:49:37.179Z,2.90
2023-04-30T21:52:08.292Z,4.97
2023-04-30T21:54:36.197Z,2.92
2023-04-30T21:57:04.240Z,3.30
2023-04-30T21:59:34.199Z,4.05
2023-04-30T22:02:07.405Z,3.20
2023-04-30T22:04:41.112Z,2.95
2023-04-30T22:07:10.360Z,4.18
2023-04-30T22:09:40.557Z,2.65
2023-04-30T22:12:09.222Z,3.72
2023-04-30T22:14:40.079Z,3.50
2023-04-30T22:17:08.438Z,3.72
2023-04-30T22:19:36.958Z,3.92
2023-04-30T22:22:04.886Z,3.72
2023-04-30T22:24:37.054Z,3.50
2023-04-30T22:27:05.286Z,2.92
2023-04-30T22:29:33.492Z,2.40
2023-04-30T22:32:01.726Z,3.72
2023-04-30T22:34:30.600Z,3.30
2023-04-30T22:36:58.464Z,4.45
2023-04-30T22:39:30.963Z,2.30
2023-04-30T22:42:00.410Z,4.55
2023-04-30T22:44:29.893Z,4.10
2023-04-30T22:46:58.403Z,2.67
2023-04-30T22:49:31.685Z,3.65
2023-04-30T22:52:03.112Z,2.72
2023-04-30T22:54:31.533Z,2.35
2023-04-30T22:57:01.421Z,2.40
2023-04-30T22:59:29.364Z,3.95
2023-04-30T23:01:57.258Z,3.40
2023-04-30T23:04:26.676Z,2.60
2023-04-30T23:06:54.877Z,4.05
2023-04-30T23:09:22.933Z,3.60
2023-04-30T23:11:50.929Z,3.30
2023-04-30T23:14:20.847Z,4.03
2023-04-30T23:16:48.825Z,2.60
2023-04-30T23:19:16.771Z,2.65
2023-04-30T23:21:44.669Z,2.92
2023-04-30T23:24:12.628Z,3.40
2023-04-30T23:26:41.846Z,2.53
2023-04-30T23:29:11.874Z,3.15
2023-04-30T23:31:41.242Z,4.88
2023-04-30T23:34:09.178Z,2.20
2023-04-30T23:36:37.071Z,2.08
2023-04-30T23:39:05.193Z,3.28
2023-04-30T23:41:36.243Z,3.05
2023-04-30T23:44:04.495Z,2.13
2023-04-30T23:46:34.411Z,2.80
2023-04-30T23:49:06.114Z,2.53
2023-04-30T23:51:34.021Z,3.03
2023-04-30T23:54:01.908Z,2.78
2023-04-30T23:56:33.256Z,2.80
2023-04-30T23:59:01.627Z,2.60
